Addicks, Texas
Current Conditions -  °F | °C
As of 3:53 AM on Thursday 27 Nov 2014 (Local Time) from KSGR Reporting Station
Clear Clear  
Wind Chill:   Ceiling: Unl
Heat Index:   Visibility: 10mi
Dew Point:   Wind: 8mph
Humidity: 71%   Direction: 20°NNE
Pressure: 30.38"   Gusts: NA
Location:  29.7757°N, 95.6037°W
Report Text: KSGR 270953Z AUTO 02007KT 10SM CLR 09/04 A3038 RMK AO2 SLP288 T00890039
Loading
Personal Weather Stations






























Interactive Weather Map New forecast layout! Learn more

10-Day Weather Forecast

Advertisements
Track Severe Weather on mobile